Time;durP1;ratioP1;P1;durP2;ratioP2;P2;SDS_P1;SDS_P2;PMS_P1;PMS_P2;Temp;Humidity;BMP_temperature;BMP_pressure;BME280_temperature;BME280_humidity;BME280_pressure;Samples;Min_cycle;Max_cycle;Signal;HPM_P1;HPM_P2
2022/08/04 00:02:22;;;;;;;1.48;0.50;;;23.50;91.10;;;;;;4997346;28;20045;-80
2022/08/04 00:05:03;;;;;;;3.30;1.20;;;23.40;91.20;;;;;;5003834;28;20025;-81
2022/08/04 00:07:42;;;;;;;1.95;0.65;;;23.40;91.60;;;;;;4992131;28;20033;-80
2022/08/04 00:10:10;;;;;;;3.20;0.80;;;23.40;91.60;;;;;;5008806;28;20457;-80
2022/08/04 00:12:45;;;;;;;3.08;0.70;;;23.30;91.60;;;;;;4990588;28;20025;-80
2022/08/04 00:15:14;;;;;;;4.15;0.70;;;23.40;91.80;;;;;;5001835;28;20413;-80
2022/08/04 00:17:55;;;;;;;1.70;0.60;;;23.30;91.70;;;;;;4989735;28;20029;-80
2022/08/04 00:20:32;;;;;;;4.72;0.70;;;23.20;91.90;;;;;;5004797;28;20572;-81
2022/08/04 00:23:04;;;;;;;2.47;0.73;;;23.20;92.00;;;;;;5023026;28;20038;-80
2022/08/04 00:25:39;;;;;;;1.40;0.60;;;23.20;92.10;;;;;;5024269;28;20528;-80
2022/08/04 00:28:08;;;;;;;3.03;0.88;;;23.20;92.10;;;;;;4992904;28;20028;-81
2022/08/04 00:30:35;;;;;;;3.05;0.88;;;23.10;92.20;;;;;;4973323;28;20040;-80
2022/08/04 00:33:10;;;;;;;2.10;0.60;;;23.10;92.30;;;;;;4989970;28;20029;-80
2022/08/04 00:35:38;;;;;;;1.83;0.70;;;23.10;92.30;;;;;;5020888;28;20022;-80
2022/08/04 00:38:16;;;;;;;2.45;0.60;;;23.00;92.30;;;;;;4990815;28;20060;-81
2022/08/04 00:41:06;;;;;;;1.40;0.68;;;23.00;92.40;;;;;;5008971;28;20033;-80
2022/08/04 00:43:44;;;;;;;2.20;0.70;;;23.00;92.60;;;;;;5009414;28;20060;-80
2022/08/04 00:46:30;;;;;;;2.30;0.60;;;22.90;92.70;;;;;;5002951;28;20026;-80
2022/08/04 00:49:21;;;;;;;1.52;0.70;;;22.90;92.80;;;;;;4975480;28;20060;-81
2022/08/04 00:52:03;;;;;;;1.10;0.60;;;22.80;92.80;;;;;;5006619;28;20032;-81
2022/08/04 00:55:00;;;;;;;1.85;0.70;;;22.80;93.00;;;;;;5004221;28;20033;-81
2022/08/04 00:57:48;;;;;;;1.92;0.70;;;22.80;93.00;;;;;;5006907;28;20029;-81
2022/08/04 01:00:18;;;;;;;1.90;0.60;;;22.70;93.00;;;;;;5006763;28;20044;-81
2022/08/04 01:02:53;;;;;;;1.92;0.80;;;22.70;93.20;;;;;;4989411;28;20034;-81
2022/08/04 01:05:41;;;;;;;1.58;0.70;;;22.60;93.40;;;;;;5005121;28;20041;-81
2022/08/04 01:08:26;;;;;;;1.63;0.60;;;22.50;93.50;;;;;;5024201;28;20037;-80
2022/08/04 01:11:26;;;;;;;1.88;0.60;;;22.50;93.40;;;;;;5025134;28;20029;-80
2022/08/04 01:13:57;;;;;;;2.28;0.52;;;22.50;93.60;;;;;;5023022;28;20040;-80
2022/08/04 01:16:26;;;;;;;1.83;0.80;;;22.40;93.60;;;;;;5024444;28;20038;-80
2022/08/04 01:19:37;;;;;;;1.60;0.80;;;22.40;93.80;;;;;;5023155;28;20029;-80
2022/08/04 01:22:10;;;;;;;1.85;0.60;;;22.40;93.90;;;;;;5017517;28;20408;-81
2022/08/04 01:25:12;;;;;;;1.65;0.70;;;22.30;93.90;;;;;;5019161;28;20026;-80
2022/08/04 01:28:16;;;;;;;1.42;0.73;;;22.30;94.00;;;;;;4927464;28;20053;-80
2022/08/04 01:30:49;;;;;;;2.35;0.85;;;22.30;94.20;;;;;;4989492;28;20053;-81
2022/08/04 01:33:18;;;;;;;2.45;0.60;;;22.30;94.20;;;;;;5021630;28;20038;-81
2022/08/04 01:36:03;;;;;;;1.70;0.68;;;22.20;94.30;;;;;;4998643;28;20014;-80
2022/08/04 01:38:38;;;;;;;1.85;0.70;;;22.20;94.40;;;;;;5022702;28;20048;-80
2022/08/04 01:41:13;;;;;;;1.23;0.60;;;22.20;94.50;;;;;;5021821;28;20029;-81
2022/08/04 01:43:50;;;;;;;1.63;0.50;;;22.20;94.60;;;;;;5005939;28;20046;-81
2022/08/04 01:46:17;;;;;;;2.97;0.60;;;22.20;94.70;;;;;;5021731;28;20034;-80
2022/08/04 01:48:46;;;;;;;1.70;0.70;;;22.10;94.70;;;;;;5021464;28;21487;-80
2022/08/04 01:51:13;;;;;;;1.55;0.60;;;22.00;94.80;;;;;;5004001;28;20029;-80
2022/08/04 01:53:43;;;;;;;1.77;0.80;;;22.00;94.90;;;;;;4974603;28;20034;-80
2022/08/04 01:56:11;;;;;;;1.77;0.60;;;22.00;95.00;;;;;;5022856;28;20062;-81
2022/08/04 01:58:40;;;;;;;3.08;0.88;;;22.00;95.30;;;;;;4993609;28;20044;-81
2022/08/04 02:01:10;;;;;;;2.05;0.60;;;21.90;95.10;;;;;;4992478;28;20334;-80
2022/08/04 02:03:40;;;;;;;2.17;0.65;;;21.90;95.20;;;;;;5008515;28;20364;-80
2022/08/04 02:06:09;;;;;;;1.63;0.75;;;21.90;95.30;;;;;;5004644;28;20038;-81
2022/08/04 02:08:40;;;;;;;1.77;0.50;;;21.80;95.30;;;;;;5007832;28;20041;-80
2022/08/04 02:11:15;;;;;;;1.42;0.60;;;21.80;95.50;;;;;;5008975;28;20653;-80
2022/08/04 02:14:06;;;;;;;1.10;0.50;;;21.70;95.60;;;;;;5010650;28;20032;-80
2022/08/04 02:16:39;;;;;;;1.50;0.70;;;21.70;95.50;;;;;;5029007;28;20033;-80
2022/08/04 02:19:13;;;;;;;1.33;0.55;;;21.70;95.70;;;;;;5026608;28;20037;-75
2022/08/04 02:21:40;;;;;;;2.60;0.60;;;21.60;95.90;;;;;;5022846;28;20381;-77
2022/08/04 02:24:15;;;;;;;1.92;0.70;;;21.60;96.00;;;;;;5022515;28;20556;-77
2022/08/04 02:26:46;;;;;;;2.40;0.70;;;21.60;96.10;;;;;;5004927;28;20033;-77
2022/08/04 02:29:48;;;;;;;3.50;0.80;;;21.60;96.10;;;;;;5023239;28;20018;-77
2022/08/04 02:32:26;;;;;;;3.08;0.70;;;21.50;96.20;;;;;;5024214;28;20037;-77
2022/08/04 02:35:27;;;;;;;1.60;0.63;;;21.50;96.30;;;;;;5006404;28;20028;-77
2022/08/04 02:38:15;;;;;;;2.42;0.70;;;21.50;96.40;;;;;;5006318;28;20029;-77
2022/08/04 02:40:42;;;;;;;1.10;0.50;;;21.50;96.40;;;;;;5026488;28;20101;-77
2022/08/04 02:43:10;;;;;;;1.30;0.50;;;21.50;96.40;;;;;;5007716;28;20042;-77
2022/08/04 02:45:40;;;;;;;2.70;0.60;;;21.40;96.40;;;;;;5020444;28;20033;-77
2022/08/04 02:48:09;;;;;;;2.75;0.70;;;21.40;96.50;;;;;;4990646;28;20044;-77
2022/08/04 02:50:39;;;;;;;1.83;0.70;;;21.40;96.60;;;;;;5025105;28;20033;-77
2022/08/04 02:53:11;;;;;;;1.63;0.60;;;21.40;96.60;;;;;;4989618;28;20045;-77
2022/08/04 02:55:44;;;;;;;4.00;0.70;;;21.40;96.60;;;;;;5022423;28;20029;-77
2022/08/04 02:58:16;;;;;;;2.38;0.70;;;21.40;96.70;;;;;;5005753;28;20049;-77
2022/08/04 03:00:44;;;;;;;0.80;0.50;;;21.40;96.70;;;;;;5004551;28;20017;-77
2022/08/04 03:03:15;;;;;;;1.15;0.60;;;21.30;96.70;;;;;;4988356;28;20493;-77
2022/08/04 03:06:20;;;;;;;1.10;0.60;;;21.30;96.70;;;;;;5016879;28;20044;-77
2022/08/04 03:09:00;;;;;;;1.80;0.80;;;21.30;96.90;;;;;;5022345;28;20049;-77
2022/08/04 03:11:49;;;;;;;5.40;0.80;;;21.30;97.00;;;;;;5005581;28;21293;-77
2022/08/04 03:14:51;;;;;;;1.20;0.55;;;21.20;97.20;;;;;;5018890;28;20041;-75
2022/08/04 03:17:51;;;;;;;1.38;0.52;;;21.20;97.20;;;;;;5001138;28;20033;-75
2022/08/04 03:20:43;;;;;;;1.25;0.50;;;21.20;97.30;;;;;;5005775;28;20028;-75
2022/08/04 03:23:36;;;;;;;2.22;0.60;;;21.20;97.40;;;;;;5005513;28;20037;-75
2022/08/04 03:26:24;;;;;;;1.20;0.50;;;21.20;97.40;;;;;;5018320;28;20045;-77
2022/08/04 03:29:29;;;;;;;2.97;0.70;;;21.10;97.50;;;;;;5006521;28;20034;-77
2022/08/04 03:32:21;;;;;;;1.73;0.50;;;21.10;97.60;;;;;;4978281;28;20037;-77
2022/08/04 03:35:01;;;;;;;;;;;21.10;97.50;;;;;;5017851;28;20049;-76
2022/08/04 03:37:43;;;;;;;1.38;0.73;;;21.10;97.50;;;;;;5009156;28;19905;-77
2022/08/04 03:40:21;;;;;;;1.80;0.73;;;21.10;97.50;;;;;;5023351;28;20033;-76
2022/08/04 03:43:29;;;;;;;2.33;0.77;;;21.20;97.60;;;;;;5022879;28;20029;-76
2022/08/04 03:46:07;;;;;;;1.85;0.60;;;21.20;97.60;;;;;;4940282;28;20061;-76
2022/08/04 03:49:12;;;;;;;1.10;0.40;;;21.20;97.50;;;;;;4988946;28;20030;-76
2022/08/04 03:55:33;;;;;;;1.77;0.50;;;21.20;97.60;;;;;;5020150;28;20018;-76
2022/08/04 03:58:25;;;;;;;2.33;0.70;;;21.20;97.60;;;;;;5006146;28;20033;-76
2022/08/04 04:01:47;;;;;;;3.17;0.80;;;21.20;97.70;;;;;;5005379;28;20045;-75
2022/08/04 04:05:01;;;;;;;4.35;0.60;;;21.20;97.70;;;;;;5018875;28;20053;-76
2022/08/04 04:07:29;;;;;;;;;;;21.20;97.80;;;;;;4988050;28;20539;-76
2022/08/04 04:10:24;;;;;;;2.07;0.40;;;21.20;97.60;;;;;;5004732;28;19932;-76
2022/08/04 04:13:14;;;;;;;1.63;0.40;;;21.20;97.60;;;;;;5004050;28;20025;-76
2022/08/04 04:15:51;;;;;;;;;;;21.20;97.70;;;;;;4999589;28;20042;-76
2022/08/04 04:18:55;;;;;;;2.85;0.88;;;21.20;97.60;;;;;;5004729;28;19913;-76
2022/08/04 04:21:28;;;;;;;2.80;0.50;;;21.20;97.70;;;;;;5004308;28;20041;-76
2022/08/04 04:24:23;;;;;;;3.42;0.40;;;21.20;97.60;;;;;;5002966;28;20479;-76
2022/08/04 04:27:11;;;;;;;4.15;0.73;;;21.20;97.80;;;;;;5021808;28;20034;-76
2022/08/04 04:30:16;;;;;;;1.38;0.50;;;21.20;97.90;;;;;;5021083;28;20022;-76
2022/08/04 04:33:04;;;;;;;4.03;0.63;;;21.20;97.90;;;;;;5003894;28;20033;-76
2022/08/04 04:36:03;;;;;;;2.25;0.50;;;21.30;97.90;;;;;;4981226;28;20360;-76
2022/08/04 04:39:28;;;;;;;2.45;0.50;;;21.30;97.90;;;;;;4969245;28;20033;-76
2022/08/04 04:42:38;;;;;;;1.98;0.73;;;21.30;98.00;;;;;;4933436;28;20100;-76
2022/08/04 04:45:22;;;;;;;2.63;0.82;;;21.40;98.00;;;;;;4905394;29;20031;-76
2022/08/04 04:47:56;;;;;;;3.83;0.60;;;21.40;98.40;;;;;;4957160;28;20480;-76
2022/08/04 04:50:45;;;;;;;2.22;0.60;;;21.40;98.20;;;;;;5005567;28;20041;-76
2022/08/04 04:53:19;;;;;;;3.83;0.50;;;21.50;98.20;;;;;;4986822;28;20025;-76
2022/08/04 04:56:08;;;;;;;2.60;0.70;;;21.50;98.20;;;;;;5019811;28;20511;-76
2022/08/04 04:58:37;;;;;;;1.40;0.50;;;21.60;98.30;;;;;;5005902;28;20018;-76
2022/08/04 05:01:26;;;;;;;4.70;0.60;;;21.60;98.20;;;;;;5002252;28;20025;-77
2022/08/04 05:04:32;;;;;;;6.80;0.73;;;21.70;98.30;;;;;;5002142;28;20029;-77
2022/08/04 05:07:29;;;;;;;2.17;0.90;;;21.80;98.30;;;;;;5021778;28;20046;-77
2022/08/04 05:10:11;;;;;;;3.70;0.60;;;21.90;98.30;;;;;;5021098;28;20044;-76
2022/08/04 05:13:09;;;;;;;5.03;1.13;;;22.00;98.20;;;;;;5004412;28;20017;-77
2022/08/04 05:15:43;;;;;;;4.30;0.90;;;22.00;98.40;;;;;;4999691;28;20268;-77
2022/08/04 05:18:19;;;;;;;2.45;0.70;;;22.10;98.60;;;;;;4986941;28;20021;-76
2022/08/04 05:21:03;;;;;;;4.30;0.77;;;22.20;98.30;;;;;;5003367;28;20040;-77
2022/08/04 05:23:33;;;;;;;2.88;0.70;;;22.30;98.20;;;;;;4986867;28;20025;-77
2022/08/04 05:26:15;;;;;;;3.78;0.90;;;22.40;98.10;;;;;;4981972;28;20037;-77
2022/08/04 05:28:52;;;;;;;4.78;1.05;;;22.50;98.30;;;;;;5003685;28;20014;-77
2022/08/04 05:31:32;;;;;;;3.15;0.80;;;22.70;98.00;;;;;;4989028;28;20055;-77
2022/08/04 05:34:39;;;;;;;5.15;0.80;;;22.80;97.90;;;;;;5003000;28;20398;-77
2022/08/04 05:37:13;;;;;;;2.55;0.65;;;23.10;97.70;;;;;;4989877;28;20050;-77
2022/08/04 05:40:05;;;;;;;2.63;0.88;;;23.40;97.50;;;;;;5020780;28;20018;-76
2022/08/04 05:42:34;;;;;;;2.78;0.98;;;23.70;97.30;;;;;;5002720;28;20493;-76
2022/08/04 05:45:02;;;;;;;4.60;1.10;;;24.00;97.00;;;;;;5016857;28;20030;-76
2022/08/04 05:47:32;;;;;;;4.00;1.00;;;24.20;96.80;;;;;;4988252;28;20037;-76
2022/08/04 05:50:01;;;;;;;4.22;1.05;;;24.30;96.60;;;;;;5003042;28;20017;-76
2022/08/04 05:52:31;;;;;;;2.67;0.88;;;24.40;96.60;;;;;;4985967;28;20033;-76
2022/08/04 05:55:11;;;;;;;3.13;0.93;;;24.50;96.50;;;;;;4983152;28;20021;-76
2022/08/04 05:57:41;;;;;;;3.40;1.20;;;24.50;96.40;;;;;;5002296;28;20025;-76
2022/08/04 06:00:09;;;;;;;2.65;1.00;;;24.50;96.30;;;;;;4970836;28;20381;-76
2022/08/04 06:02:43;;;;;;;2.78;0.80;;;24.50;96.30;;;;;;5002788;28;20358;-76
2022/08/04 06:05:16;;;;;;;3.20;1.00;;;24.60;96.30;;;;;;4998411;28;20029;-77
2022/08/04 06:07:45;;;;;;;2.85;0.80;;;24.50;96.30;;;;;;5022559;28;20046;-77
2022/08/04 06:10:12;;;;;;;3.35;0.80;;;24.60;96.30;;;;;;5022123;28;20030;-76
2022/08/04 06:12:43;;;;;;;3.28;1.10;;;24.60;96.30;;;;;;5003181;28;20034;-76
2022/08/04 06:15:15;;;;;;;5.60;0.95;;;24.60;96.20;;;;;;4999031;28;20369;-76
2022/08/04 06:17:54;;;;;;;9.38;1.00;;;24.70;96.10;;;;;;4987441;28;20036;-76
2022/08/04 06:20:25;;;;;;;3.65;1.10;;;24.90;96.00;;;;;;5004126;28;20029;-76
2022/08/04 06:23:03;;;;;;;3.83;0.80;;;25.10;95.80;;;;;;5020709;28;20465;-76
2022/08/04 06:25:40;;;;;;;3.63;0.80;;;25.20;95.60;;;;;;5001738;28;20026;-77
2022/08/04 06:28:07;;;;;;;4.90;1.10;;;25.30;95.60;;;;;;5006317;28;20401;-76
2022/08/04 06:30:36;;;;;;;2.97;1.10;;;25.30;95.40;;;;;;5002508;28;20029;-76
2022/08/04 06:33:12;;;;;;;2.55;0.80;;;25.40;95.30;;;;;;4990257;28;20033;-76
2022/08/04 06:35:40;;;;;;;4.15;1.00;;;25.60;95.20;;;;;;4998035;28;20045;-77
2022/08/04 06:38:08;;;;;;;2.20;0.75;;;25.70;95.00;;;;;;5022636;28;20033;-76
2022/08/04 06:40:35;;;;;;;4.00;1.02;;;25.80;94.90;;;;;;4992217;28;20025;-76
2022/08/04 06:43:05;;;;;;;2.92;0.80;;;26.10;94.70;;;;;;5023680;28;20025;-76
2022/08/04 06:45:35;;;;;;;6.70;0.73;;;26.30;94.50;;;;;;5002391;28;20036;-76
2022/08/04 06:48:06;;;;;;;4.57;1.10;;;26.60;94.20;;;;;;5021287;28;20029;-76
2022/08/04 06:50:53;;;;;;;4.85;1.13;;;26.70;93.90;;;;;;4989068;28;20053;-76
2022/08/04 06:53:27;;;;;;;5.88;1.00;;;26.90;93.60;;;;;;5004139;28;20025;-75
2022/08/04 06:56:01;;;;;;;4.97;0.77;;;27.00;93.30;;;;;;5000757;28;20030;-75
2022/08/04 06:58:37;;;;;;;2.05;0.70;;;27.10;93.20;;;;;;5008375;28;20052;-75
2022/08/04 07:01:11;;;;;;;4.68;0.73;;;27.20;93.10;;;;;;4975900;28;20033;-75
2022/08/04 07:04:01;;;;;;;3.10;0.88;;;27.20;92.90;;;;;;5024045;28;20622;-75
2022/08/04 07:06:28;;;;;;;4.10;1.15;;;27.30;92.90;;;;;;5003462;28;20480;-75
2022/08/04 07:08:59;;;;;;;2.50;0.93;;;27.30;92.90;;;;;;5002297;28;20033;-75
2022/08/04 07:11:35;;;;;;;3.60;1.17;;;27.40;92.80;;;;;;5021697;28;21409;-75
2022/08/04 07:14:06;;;;;;;4.28;1.00;;;27.40;92.70;;;;;;4988911;28;20036;-75
2022/08/04 07:16:38;;;;;;;4.28;1.02;;;27.40;92.40;;;;;;5026205;28;20026;-75
2022/08/04 07:19:19;;;;;;;4.32;0.90;;;27.50;92.40;;;;;;4985775;28;20026;-75
2022/08/04 07:21:52;;;;;;;5.13;0.80;;;27.70;92.10;;;;;;5021365;28;20037;-75
2022/08/04 07:24:35;;;;;;;3.70;1.10;;;27.90;91.80;;;;;;5003404;28;20850;-76
2022/08/04 07:27:11;;;;;;;3.78;0.98;;;28.20;91.50;;;;;;4989726;28;20481;-76
2022/08/04 07:29:43;;;;;;;4.35;1.10;;;28.50;90.90;;;;;;5024682;28;20030;-76
2022/08/04 07:32:17;;;;;;;4.35;0.98;;;28.60;90.50;;;;;;4992883;28;20045;-76
2022/08/04 07:34:46;;;;;;;4.40;0.98;;;28.90;90.20;;;;;;5004814;28;20026;-75
2022/08/04 07:37:34;;;;;;;5.60;2.85;;;29.10;89.70;;;;;;5005449;28;20041;-76
2022/08/04 07:40:12;;;;;;;5.22;2.10;;;29.20;89.10;;;;;;4959626;28;20026;-76
2022/08/04 07:42:49;;;;;;;5.78;1.50;;;29.30;87.80;;;;;;4992150;28;20052;-77
2022/08/04 07:45:38;;;;;;;4.15;1.70;;;29.40;86.90;;;;;;5000996;28;20049;-77
2022/08/04 07:48:07;;;;;;;3.45;1.83;;;29.60;86.20;;;;;;4974840;28;20038;-77
2022/08/04 07:50:37;;;;;;;7.10;1.73;;;29.80;85.50;;;;;;5005232;28;20038;-76
2022/08/04 07:53:04;;;;;;;3.45;1.27;;;29.90;84.50;;;;;;4989261;28;20021;-77
2022/08/04 07:55:34;;;;;;;4.53;1.20;;;30.10;84.00;;;;;;5004912;28;20014;-76
2022/08/04 07:58:01;;;;;;;3.95;0.88;;;30.20;82.70;;;;;;4980415;28;20034;-77
2022/08/04 08:00:28;;;;;;;6.57;0.75;;;30.30;82.40;;;;;;5005103;28;20022;-76
2022/08/04 08:02:56;;;;;;;4.82;1.77;;;30.40;81.80;;;;;;5003495;28;20377;-77
2022/08/04 08:05:23;;;;;;;5.65;2.42;;;30.50;81.10;;;;;;4985167;28;20391;-76
2022/08/04 08:07:52;;;;;;;9.77;7.07;;;30.60;80.00;;;;;;4974691;28;20045;-77
2022/08/04 08:10:22;;;;;;;7.30;4.10;;;30.70;79.60;;;;;;4991799;28;20033;-76
2022/08/04 08:12:50;;;;;;;3.65;1.30;;;30.90;78.40;;;;;;4999855;28;20369;-77
2022/08/04 08:15:18;;;;;;;4.72;0.90;;;30.90;77.80;;;;;;5020036;28;20022;-76
2022/08/04 08:17:44;;;;;;;3.33;0.70;;;30.90;77.90;;;;;;5023209;28;20365;-76
2022/08/04 08:20:11;;;;;;;2.25;0.60;;;30.90;78.00;;;;;;4987752;28;20037;-76
2022/08/04 08:22:38;;;;;;;3.50;0.68;;;31.00;78.00;;;;;;4992026;28;20021;-76
2022/08/04 08:25:05;;;;;;;3.80;0.80;;;31.10;77.80;;;;;;5020372;28;20361;-76
2022/08/04 08:27:33;;;;;;;4.13;0.90;;;31.20;77.60;;;;;;5004856;28;20033;-76
2022/08/04 08:29:59;;;;;;;2.58;0.73;;;31.40;77.10;;;;;;4990494;28;20457;-77
2022/08/04 08:32:26;;;;;;;2.05;0.50;;;31.60;76.80;;;;;;4991410;28;20037;-77
2022/08/04 08:34:53;;;;;;;3.78;0.95;;;31.70;76.30;;;;;;5003484;28;20046;-77
2022/08/04 08:37:32;;;;;;;3.92;0.80;;;31.90;76.30;;;;;;5026741;28;20038;-76
2022/08/04 08:40:38;;;;;;;3.22;0.98;;;32.10;76.10;;;;;;5024887;28;20365;-76
2022/08/04 08:43:29;;;;;;;3.88;0.70;;;32.20;75.40;;;;;;5018168;28;20140;-76
2022/08/04 08:46:01;;;;;;;1.73;0.50;;;32.50;74.80;;;;;;5021476;28;20018;-76
2022/08/04 08:48:47;;;;;;;5.05;0.75;;;32.70;74.50;;;;;;5023638;28;20030;-76
2022/08/04 08:51:37;;;;;;;2.47;0.88;;;32.90;74.10;;;;;;5023804;28;20045;-76
2022/08/04 08:54:07;;;;;;;3.45;0.80;;;33.00;73.50;;;;;;5020250;28;20025;-77
2022/08/04 08:56:59;;;;;;;4.22;0.80;;;33.00;72.60;;;;;;4986632;28;20029;-76
2022/08/04 08:59:34;;;;;;;6.60;0.80;;;33.20;72.10;;;;;;4988266;28;20046;-77
2022/08/04 09:02:31;;;;;;;4.35;0.90;;;33.20;70.70;;;;;;5003959;28;20032;-76
2022/08/04 09:05:13;;;;;;;4.15;0.60;;;33.30;71.10;;;;;;5019695;28;20029;-77
2022/08/04 09:08:10;;;;;;;2.83;0.73;;;33.40;70.80;;;;;;5024652;28;20033;-77
2022/08/04 09:10:52;;;;;;;3.47;0.80;;;33.50;70.90;;;;;;5001247;28;20482;-77
2022/08/04 09:13:44;;;;;;;2.75;0.65;;;33.50;71.00;;;;;;4985973;28;20029;-78
2022/08/04 09:16:24;;;;;;;10.15;6.82;;;33.60;70.70;;;;;;5001268;28;20025;-77
2022/08/04 09:19:10;;;;;;;8.40;6.38;;;33.60;70.90;;;;;;5003572;28;20032;-77
2022/08/04 09:21:57;;;;;;;5.72;3.17;;;33.70;70.10;;;;;;5004678;28;20017;-77
2022/08/04 09:25:03;;;;;;;4.90;1.50;;;33.60;69.90;;;;;;5002899;28;20373;-76
2022/08/04 09:27:58;;;;;;;6.85;1.65;;;33.50;69.60;;;;;;5022237;28;20022;-77
2022/08/04 09:30:38;;;;;;;3.55;0.88;;;33.50;69.50;;;;;;5023503;28;20021;-76
2022/08/04 09:33:39;;;;;;;3.92;1.23;;;33.40;69.60;;;;;;4988843;28;20037;-76
2022/08/04 09:36:22;;;;;;;2.17;0.98;;;33.00;69.40;;;;;;5003256;28;20527;-76
2022/08/04 09:39:34;;;;;;;1.98;0.73;;;32.80;70.20;;;;;;5021558;28;20033;-77
2022/08/04 09:42:20;;;;;;;3.25;1.00;;;32.70;69.80;;;;;;5002320;28;20029;-77
2022/08/04 09:45:15;;;;;;;3.42;1.20;;;32.90;69.80;;;;;;5017544;28;20512;-77
2022/08/04 09:47:50;;;;;;;3.28;0.90;;;32.90;69.60;;;;;;5020927;28;20021;-77
2022/08/04 09:50:44;;;;;;;2.90;0.90;;;33.00;69.80;;;;;;5020243;28;20052;-77
2022/08/04 09:53:53;;;;;;;2.75;0.80;;;33.00;69.60;;;;;;5019931;28;20009;-76
2022/08/04 09:56:31;;;;;;;5.07;0.90;;;33.30;69.60;;;;;;4977855;28;20046;-75
2022/08/04 09:59:24;;;;;;;2.67;0.95;;;33.50;69.30;;;;;;5001753;28;20495;-75
2022/08/04 10:01:56;;;;;;;4.22;0.98;;;33.70;69.50;;;;;;5021093;28;20028;-77
2022/08/04 10:04:25;;;;;;;2.55;0.80;;;33.80;69.30;;;;;;5019019;28;20040;-78
2022/08/04 10:07:14;;;;;;;4.13;1.17;;;33.90;69.20;;;;;;5002718;28;20353;-77
2022/08/04 10:09:49;;;;;;;3.78;0.80;;;33.90;68.60;;;;;;5002098;28;20037;-76
2022/08/04 10:12:30;;;;;;;3.95;0.77;;;33.80;68.60;;;;;;5021931;28;20013;-78
2022/08/04 10:15:07;;;;;;;2.38;0.60;;;33.80;68.40;;;;;;5003595;28;20059;-77
2022/08/04 10:17:48;;;;;;;4.30;0.90;;;33.70;68.50;;;;;;4988923;28;20034;-78
2022/08/04 10:20:44;;;;;;;2.58;1.00;;;33.60;68.60;;;;;;5024484;28;20013;-77
2022/08/04 10:23:23;;;;;;;2.10;0.70;;;33.50;68.80;;;;;;5006167;28;20392;-77
2022/08/04 10:26:05;;;;;;;2.28;0.47;;;33.30;68.60;;;;;;5004377;28;20030;-76
2022/08/04 10:28:40;;;;;;;1.38;0.50;;;33.20;68.50;;;;;;5009585;28;20409;-77
2022/08/04 10:31:10;;;;;;;2.47;0.50;;;33.10;68.50;;;;;;5025550;28;20021;-77
2022/08/04 10:33:48;;;;;;;3.58;0.68;;;32.90;68.70;;;;;;5025496;28;20017;-77
2022/08/04 10:36:18;;;;;;;3.55;0.70;;;32.80;69.40;;;;;;5022011;28;20029;-77
2022/08/04 10:39:10;;;;;;;4.22;1.02;;;32.50;68.80;;;;;;4988786;28;20018;-77
2022/08/04 10:42:09;;;;;;;3.85;0.70;;;32.40;68.90;;;;;;5006760;28;20021;-77
2022/08/04 10:44:36;;;;;;;4.22;0.68;;;32.20;69.30;;;;;;5002833;28;20034;-77
2022/08/04 10:47:23;;;;;;;3.47;0.75;;;32.10;69.80;;;;;;5006636;28;20040;-76
2022/08/04 10:49:54;;;;;;;2.58;0.60;;;31.80;70.10;;;;;;5007171;28;20022;-76
2022/08/04 10:52:51;;;;;;;4.32;1.50;;;31.50;70.70;;;;;;5026131;28;20020;-76
2022/08/04 10:55:25;;;;;;;1.63;0.90;;;31.10;71.40;;;;;;5024196;28;20052;-76
2022/08/04 10:58:19;;;;;;;2.72;0.70;;;30.80;72.00;;;;;;5006317;28;20022;-76
2022/08/04 11:01:04;;;;;;;3.15;0.70;;;30.30;73.70;;;;;;4992019;28;20052;-76
2022/08/04 11:03:57;;;;;;;3.65;0.80;;;29.80;75.20;;;;;;5003973;28;20044;-78
2022/08/04 11:06:39;;;;;;;2.90;0.55;;;29.50;77.10;;;;;;5002650;28;20037;-77
2022/08/04 11:09:34;;;;;;;4.78;0.90;;;28.80;80.20;;;;;;5003800;28;20048;-76
2022/08/04 11:12:22;;;;;;;2.28;0.50;;;28.00;83.00;;;;;;5023832;28;20025;-77
2022/08/04 11:14:53;;;;;;;3.30;1.10;;;27.50;86.10;;;;;;5000916;28;20049;-77
2022/08/04 11:20:57;;;;;;;4.07;0.70;;;26.70;90.80;;;;;;5005605;28;20515;-77
2022/08/04 11:23:33;;;;;;;2.77;0.60;;;26.50;91.50;;;;;;5020257;28;20037;-78
2022/08/04 11:26:11;;;;;;;2.15;0.70;;;26.20;92.20;;;;;;4969266;28;20042;-79
2022/08/04 11:28:57;;;;;;;2.33;0.70;;;26.00;92.90;;;;;;4991035;28;20033;-78
2022/08/04 11:31:34;;;;;;;3.67;0.70;;;25.90;93.30;;;;;;5007831;28;20066;-79
2022/08/04 11:34:26;;;;;;;3.80;0.80;;;25.70;93.90;;;;;;5003782;28;20091;-78
2022/08/04 11:37:21;;;;;;;4.57;1.35;;;25.60;94.70;;;;;;4988488;28;20033;-78
2022/08/04 11:40:08;;;;;;;4.13;1.08;;;25.50;95.50;;;;;;4988576;28;20029;-80
2022/08/04 11:42:48;;;;;;;5.03;2.63;;;25.40;96.40;;;;;;5023072;28;20025;-78
2022/08/04 11:45:23;;;;;;;5.03;1.70;;;25.40;97.20;;;;;;4972460;28;20037;-79
2022/08/04 11:48:06;;;;;;;6.97;2.60;;;25.50;97.50;;;;;;5005666;28;20674;-77
2022/08/04 11:50:50;;;;;;;2.78;1.17;;;25.60;98.20;;;;;;5004703;28;20929;-78
2022/08/04 11:53:25;;;;;;;2.28;0.75;;;25.70;98.30;;;;;;5005769;28;20048;-78
2022/08/04 11:56:02;;;;;;;2.05;0.60;;;25.80;98.30;;;;;;4974858;28;20046;-78
2022/08/04 11:58:29;;;;;;;3.28;0.90;;;25.90;98.40;;;;;;5006890;28;20029;-78
2022/08/04 12:01:27;;;;;;;2.17;0.85;;;26.00;98.50;;;;;;5004664;28;20034;-78
2022/08/04 12:04:15;;;;;;;4.43;1.05;;;26.00;98.50;;;;;;5022699;28;20045;-78
2022/08/04 12:07:03;;;;;;;4.03;0.80;;;26.10;98.70;;;;;;5005537;28;20032;-78
2022/08/04 12:09:38;;;;;;;2.58;1.02;;;26.10;98.80;;;;;;5004459;28;20037;-78
2022/08/04 12:12:24;;;;;;;5.15;1.00;;;26.10;98.90;;;;;;4972280;28;20017;-79
2022/08/04 12:15:22;;;;;;;3.20;1.75;;;26.00;99.00;;;;;;5002136;28;20032;-78
2022/08/04 12:18:08;;;;;;;7.30;4.47;;;26.00;99.30;;;;;;5005445;28;20041;-79
2022/08/04 12:20:48;;;;;;;8.45;4.20;;;26.00;99.30;;;;;;5022702;28;20025;-78
2022/08/04 12:23:31;;;;;;;4.75;1.20;;;25.80;99.10;;;;;;4987327;28;20031;-78
2022/08/04 12:26:14;;;;;;;7.57;1.35;;;25.80;99.80;;;;;;5002425;28;20026;-78
2022/08/04 12:28:45;;;;;;;7.18;1.88;;;25.80;99.80;;;;;;5024535;28;20393;-78
2022/08/04 12:31:26;;;;;;;10.52;1.75;;;26.00;99.90;;;;;;5004883;28;20037;-78
2022/08/04 12:33:58;;;;;;;3.03;1.00;;;26.30;99.90;;;;;;5022426;28;20029;-78
2022/08/04 12:36:54;;;;;;;5.57;1.50;;;26.50;99.90;;;;;;5020606;28;20009;-75
2022/08/04 12:39:21;;;;;;;2.85;1.05;;;26.80;99.90;;;;;;4994528;28;20045;-75
2022/08/04 12:42:28;;;;;;;3.42;1.60;;;27.10;99.40;;;;;;5021913;28;20022;-75
2022/08/04 12:44:58;;;;;;;3.83;1.15;;;27.30;99.00;;;;;;5001353;28;20022;-75
2022/08/04 12:47:27;;;;;;;4.78;0.80;;;27.40;99.00;;;;;;5004063;28;20405;-75
2022/08/04 12:50:02;;;;;;;2.53;0.95;;;27.50;99.00;;;;;;5007005;28;20067;-75
2022/08/04 12:52:41;;;;;;;2.08;0.90;;;27.50;99.00;;;;;;4989164;28;20013;-75
2022/08/04 12:55:08;;;;;;;2.80;1.08;;;27.60;99.00;;;;;;4987681;28;20025;-75
2022/08/04 12:57:42;;;;;;;4.03;1.27;;;27.80;99.00;;;;;;4971109;28;20030;-75
2022/08/04 13:00:10;;;;;;;5.45;0.95;;;28.00;98.90;;;;;;5003345;28;20026;-75
2022/08/04 13:02:46;;;;;;;3.65;1.02;;;29.00;97.50;;;;;;4971811;28;20029;-76
2022/08/04 13:05:15;;;;;;;5.53;0.90;;;29.80;96.10;;;;;;4969183;28;20033;-76
2022/08/04 13:07:49;;;;;;;2.65;0.80;;;30.10;94.70;;;;;;4989471;28;20045;-76
2022/08/04 13:10:18;;;;;;;1.95;0.50;;;30.20;94.10;;;;;;5005717;28;20044;-76
2022/08/04 13:12:59;;;;;;;4.13;1.65;;;30.30;93.80;;;;;;5004838;28;20073;-76
2022/08/04 13:15:27;;;;;;;4.85;1.90;;;30.00;93.30;;;;;;4985115;28;20507;-76
2022/08/04 13:18:04;;;;;;;5.82;1.30;;;29.70;93.30;;;;;;5004343;28;20472;-74
2022/08/04 13:20:36;;;;;;;3.05;0.85;;;29.40;93.50;;;;;;5021677;28;20025;-76
2022/08/04 13:23:15;;;;;;;2.75;0.90;;;29.30;93.20;;;;;;5004422;28;20038;-76
2022/08/04 13:25:50;;;;;;;2.55;0.60;;;29.50;93.20;;;;;;5003475;28;20072;-76
2022/08/04 13:28:26;;;;;;;3.45;0.70;;;30.50;92.60;;;;;;5021633;28;20029;-76
2022/08/04 13:30:59;;;;;;;3.03;0.63;;;32.30;90.30;;;;;;5002520;28;20035;-76
2022/08/04 13:33:32;;;;;;;2.78;0.60;;;32.80;88.00;;;;;;4986806;28;20446;-76
2022/08/04 13:35:59;;;;;;;1.75;0.50;;;32.80;86.80;;;;;;5016381;28;20010;-76
2022/08/04 13:38:28;;;;;;;1.42;0.50;;;33.50;85.10;;;;;;4973777;28;20036;-76
2022/08/04 13:41:05;;;;;;;5.68;0.88;;;34.00;82.30;;;;;;5003773;28;20021;-75
2022/08/04 13:43:43;;;;;;;3.15;0.70;;;33.80;81.40;;;;;;5021389;28;20025;-76
2022/08/04 13:46:16;;;;;;;2.58;0.70;;;33.70;80.50;;;;;;5019390;28;20022;-76
2022/08/04 13:48:45;;;;;;;1.60;0.55;;;33.60;79.70;;;;;;5007885;28;20048;-76
2022/08/04 13:51:17;;;;;;;3.45;0.63;;;33.80;78.20;;;;;;5007037;28;20036;-76
2022/08/04 13:53:43;;;;;;;2.80;0.60;;;34.50;77.60;;;;;;5023952;28;20017;-76
2022/08/04 13:56:15;;;;;;;1.88;0.50;;;35.40;74.50;;;;;;5021757;28;20029;-77
2022/08/04 13:58:48;;;;;;;1.30;0.50;;;36.30;72.70;;;;;;4999160;28;20032;-77
2022/08/04 14:01:28;;;;;;;4.47;0.60;;;37.10;70.50;;;;;;5024032;28;20112;-78